Time;durP1;ratioP1;P1;durP2;ratioP2;P2;SDS_P1;SDS_P2;PMS_P1;PMS_P2;Temp;Humidity;BMP_temperature;BMP_pressure;BME280_temperature;BME280_humidity;BME280_pressure;Samples;Min_cycle;Max_cycle;Signal;HPM_P1;HPM_P2
2020/12/13 00:00:49;;;;;;;0.82;0.82;;;5.80;99.90;;;;;;5028973;28;20026;-86
2020/12/13 00:03:15;;;;;;;0.20;0.20;;;5.90;99.90;;;;;;5029149;28;20036;-87
2020/12/13 00:05:42;;;;;;;0.30;0.30;;;5.80;99.90;;;;;;5010972;28;20032;-87
2020/12/13 00:08:08;;;;;;;1.33;1.23;;;5.90;99.90;;;;;;5022903;28;20450;-87
2020/12/13 00:10:34;;;;;;;0.52;0.52;;;5.90;99.90;;;;;;5010421;28;20084;-87
2020/12/13 00:13:00;;;;;;;1.35;1.25;;;5.80;99.90;;;;;;5007854;28;20129;-86
2020/12/13 00:15:25;;;;;;;0.20;0.15;;;5.80;99.90;;;;;;5022807;28;20428;-86
2020/12/13 00:17:51;;;;;;;0.77;0.77;;;5.90;99.90;;;;;;5018695;28;20045;-86
2020/12/13 00:20:18;;;;;;;0.60;0.60;;;5.90;99.90;;;;;;5046137;28;20025;-87
2020/12/13 00:22:45;;;;;;;4.22;3.72;;;5.90;99.90;;;;;;5048445;28;20048;-86
2020/12/13 00:25:11;;;;;;;2.08;1.25;;;5.90;99.90;;;;;;5048685;28;20028;-86
2020/12/13 00:27:38;;;;;;;5.93;3.70;;;5.90;99.90;;;;;;5030414;28;20173;-86
2020/12/13 00:30:04;;;;;;;;;;;6.00;99.90;;;;;;5047728;28;20087;-86
2020/12/13 00:32:31;;;;;;;0.67;0.67;;;6.00;99.90;;;;;;5048295;28;19912;-86
2020/12/13 00:34:58;;;;;;;0.17;0.17;;;5.90;99.90;;;;;;5048668;28;20766;-87
2020/12/13 00:37:24;;;;;;;0.20;0.20;;;5.80;99.90;;;;;;5026789;28;20622;-87
2020/12/13 00:39:50;;;;;;;0.70;0.70;;;5.70;99.90;;;;;;5039294;28;20036;-87
2020/12/13 00:42:16;;;;;;;0.10;0.10;;;5.60;99.90;;;;;;5048182;28;20033;-87
2020/12/13 00:44:42;;;;;;;0.25;0.25;;;5.50;99.90;;;;;;5026659;28;20036;-87
2020/12/13 00:47:08;;;;;;;0.68;0.68;;;5.30;99.90;;;;;;5048082;28;20116;-87
2020/12/13 00:49:34;;;;;;;2.53;1.90;;;5.30;99.90;;;;;;5060255;28;20032;-87
2020/12/13 00:52:01;;;;;;;1.50;1.40;;;5.30;99.90;;;;;;5051491;28;20032;-87
2020/12/13 00:54:27;;;;;;;2.22;2.13;;;5.40;99.90;;;;;;5029653;28;20350;-87
2020/12/13 00:56:53;;;;;;;3.85;2.45;;;5.60;99.90;;;;;;5029934;28;20561;-87
2020/12/13 00:59:18;;;;;;;0.15;0.15;;;5.60;99.90;;;;;;5025843;28;20037;-87
2020/12/13 01:01:44;;;;;;;1.08;0.57;;;5.50;99.90;;;;;;5046857;28;20593;-87
2020/12/13 01:04:10;;;;;;;0.17;0.17;;;5.40;99.90;;;;;;5029482;28;20033;-87
2020/12/13 01:06:36;;;;;;;0.40;0.40;;;5.20;99.90;;;;;;5028737;28;20056;-87
2020/12/13 01:09:01;;;;;;;0.77;0.77;;;5.10;99.90;;;;;;5029433;28;20049;-87
2020/12/13 01:11:32;;;;;;;3.00;1.27;;;5.00;99.90;;;;;;5029336;28;20074;-87
2020/12/13 01:13:59;;;;;;;3.92;3.03;;;4.90;99.90;;;;;;5027792;28;20060;-87
2020/12/13 01:16:26;;;;;;;1.13;1.13;;;4.80;99.90;;;;;;5044232;28;20069;-87
2020/12/13 01:18:52;;;;;;;1.52;0.85;;;4.80;99.90;;;;;;5014375;28;20040;-86
2020/12/13 01:21:25;;;;;;;0.30;0.30;;;4.80;99.90;;;;;;5022632;28;20026;-86
2020/12/13 01:23:51;;;;;;;1.60;1.50;;;4.70;99.90;;;;;;5001404;28;20045;-86
2020/12/13 01:26:18;;;;;;;1.42;1.38;;;4.90;1.00;;;;;;5008638;28;20125;-86
2020/12/13 01:28:44;;;;;;;;;;;5.00;1.00;;;;;;5020964;28;20044;-86
2020/12/13 01:31:18;;;;;;;1.05;1.05;;;5.10;1.00;;;;;;5004954;28;19917;-85
2020/12/13 01:33:48;;;;;;;0.20;0.20;;;5.30;99.90;;;;;;5026849;28;20042;-85
2020/12/13 01:36:23;;;;;;;1.15;1.15;;;5.30;99.90;;;;;;5027756;28;20513;-86
2020/12/13 01:38:50;;;;;;;2.28;1.48;;;5.30;99.90;;;;;;5008115;28;20029;-86
2020/12/13 01:41:16;;;;;;;1.35;1.17;;;5.30;99.90;;;;;;5026157;28;20041;-86
2020/12/13 01:43:55;;;;;;;1.00;0.77;;;5.40;99.90;;;;;;5008313;28;20047;-86
2020/12/13 01:46:21;;;;;;;0.20;0.20;;;5.40;99.90;;;;;;5026122;28;20276;-87
2020/12/13 01:48:46;;;;;;;0.57;0.57;;;5.40;99.90;;;;;;5027021;28;20029;-87
2020/12/13 01:53:43;;;;;;;0.10;0.10;;;5.40;99.90;;;;;;5026955;28;20030;-86
2020/12/13 01:56:11;;;;;;;9.15;1.15;;;5.30;99.90;;;;;;5026787;28;20136;-86
2020/12/13 01:58:38;;;;;;;0.20;0.20;;;5.30;99.90;;;;;;5009146;28;20491;-86
2020/12/13 02:01:05;;;;;;;;;;;5.40;99.90;;;;;;5009729;28;20036;-87
2020/12/13 02:03:48;;;;;;;0.30;0.30;;;5.30;99.90;;;;;;5012740;28;20406;-87
2020/12/13 02:06:23;;;;;;;0.30;0.30;;;5.30;99.90;;;;;;5005517;28;20037;-86
2020/12/13 02:08:50;;;;;;;0.30;0.30;;;5.20;99.90;;;;;;5024007;28;20510;-86
2020/12/13 02:11:18;;;;;;;0.75;0.75;;;5.20;99.90;;;;;;5027008;28;20033;-86
2020/12/13 02:13:46;;;;;;;1.38;1.33;;;5.10;99.90;;;;;;5026370;28;20021;-86
2020/12/13 02:16:12;;;;;;;1.88;0.75;;;5.00;99.90;;;;;;5017783;28;20153;-87
2020/12/13 02:18:41;;;;;;;0.45;0.45;;;5.00;99.90;;;;;;5054372;28;20486;-87
2020/12/13 02:21:06;;;;;;;0.45;0.45;;;5.00;99.90;;;;;;5021637;28;20438;-88
2020/12/13 02:23:32;;;;;;;0.10;0.10;;;4.90;99.90;;;;;;5042708;28;20031;-86
2020/12/13 02:25:58;;;;;;;0.10;0.10;;;4.90;99.90;;;;;;5038070;28;20045;-86
2020/12/13 02:28:24;;;;;;;0.15;0.15;;;5.00;99.90;;;;;;5045322;28;20031;-86
2020/12/13 02:30:50;;;;;;;0.52;0.52;;;5.00;99.90;;;;;;5032327;28;20051;-86
2020/12/13 02:33:16;;;;;;;0.10;0.10;;;4.80;99.90;;;;;;5054309;28;20028;-85
2020/12/13 02:35:42;;;;;;;0.23;0.23;;;4.90;1.00;;;;;;5047056;28;20036;-85
2020/12/13 02:38:08;;;;;;;0.10;0.10;;;5.00;1.00;;;;;;5025181;28;20648;-86
2020/12/13 02:40:34;;;;;;;0.10;0.10;;;5.00;1.00;;;;;;5045935;28;20054;-85
2020/12/13 02:43:00;;;;;;;0.10;0.10;;;5.00;1.00;;;;;;5026140;28;20033;-86
2020/12/13 02:45:25;;;;;;;0.10;0.10;;;4.90;1.00;;;;;;5039964;28;20171;-85
2020/12/13 02:47:51;;;;;;;0.17;0.17;;;5.00;1.00;;;;;;5028518;28;20044;-85
2020/12/13 02:50:17;;;;;;;0.10;0.10;;;5.00;1.00;;;;;;5024752;28;20033;-85
2020/12/13 02:52:43;;;;;;;0.52;0.52;;;5.10;1.00;;;;;;5044754;28;20049;-85
2020/12/13 02:55:08;;;;;;;19.85;0.95;;;5.20;99.90;;;;;;5038676;28;20026;-85
2020/12/13 02:57:34;;;;;;;0.28;0.28;;;5.20;99.90;;;;;;5031720;28;20025;-85
2020/12/13 03:00:00;;;;;;;0.17;0.17;;;5.30;99.90;;;;;;5032180;28;20028;-85
2020/12/13 03:02:26;;;;;;;0.20;0.20;;;5.30;99.90;;;;;;5049939;28;20036;-85
2020/12/13 03:04:51;;;;;;;1.45;1.35;;;5.20;99.90;;;;;;5053071;28;20395;-85
2020/12/13 03:07:17;;;;;;;5.72;2.40;;;5.30;99.90;;;;;;5069478;28;20111;-85
2020/12/13 03:09:43;;;;;;;0.10;0.10;;;5.30;99.90;;;;;;5048873;28;20057;-85
2020/12/13 03:12:09;;;;;;;1.48;1.42;;;5.50;99.90;;;;;;5025786;28;20053;-85
2020/12/13 03:14:34;;;;;;;2.95;2.28;;;5.50;99.90;;;;;;5047533;28;20029;-86
2020/12/13 03:17:00;;;;;;;1.05;1.00;;;5.50;99.90;;;;;;5031776;28;20055;-86
2020/12/13 03:19:26;;;;;;;0.40;0.40;;;5.50;99.90;;;;;;5031537;28;20029;-85
2020/12/13 03:21:52;;;;;;;0.73;0.73;;;5.40;99.90;;;;;;5044684;28;20032;-85
2020/12/13 03:24:18;;;;;;;0.10;0.10;;;5.40;99.90;;;;;;5059837;28;20036;-85
2020/12/13 03:26:43;;;;;;;0.30;0.30;;;5.50;99.90;;;;;;5036748;28;20034;-85
2020/12/13 03:29:09;;;;;;;0.28;0.28;;;5.60;99.90;;;;;;5049368;28;20561;-85
2020/12/13 03:31:35;;;;;;;0.10;0.10;;;5.50;99.90;;;;;;5043952;28;20075;-87
2020/12/13 03:34:01;;;;;;;0.10;0.10;;;5.50;99.90;;;;;;5050269;28;20099;-86
2020/12/13 03:36:27;;;;;;;2.55;1.45;;;5.50;99.90;;;;;;5030118;28;20055;-86
2020/12/13 03:38:53;;;;;;;0.20;0.20;;;5.50;99.90;;;;;;5031342;28;20506;-85
2020/12/13 03:41:19;;;;;;;0.47;0.47;;;5.50;99.90;;;;;;5031754;28;20087;-85
2020/12/13 03:43:44;;;;;;;0.80;0.80;;;5.40;99.90;;;;;;5047986;28;20573;-85
2020/12/13 03:46:10;;;;;;;0.20;0.20;;;5.50;99.90;;;;;;5046798;28;20403;-85
2020/12/13 03:48:36;;;;;;;0.77;0.77;;;5.50;99.90;;;;;;5043539;28;20841;-86
2020/12/13 03:51:02;;;;;;;0.38;0.38;;;5.50;99.90;;;;;;5052355;28;20029;-86
2020/12/13 03:53:29;;;;;;;0.35;0.35;;;5.60;99.90;;;;;;5042318;28;20032;-85
2020/12/13 03:55:55;;;;;;;0.43;0.43;;;5.60;99.90;;;;;;5030942;28;20037;-86
2020/12/13 03:58:22;;;;;;;2.53;0.98;;;5.50;99.90;;;;;;5026037;28;20768;-86
2020/12/13 04:00:48;;;;;;;0.20;0.20;;;5.50;99.90;;;;;;5022776;28;20083;-86
2020/12/13 04:03:13;;;;;;;1.60;1.00;;;5.60;99.90;;;;;;5026822;28;20037;-86
2020/12/13 04:05:39;;;;;;;0.20;0.20;;;5.60;99.90;;;;;;5027958;28;20676;-86
2020/12/13 04:08:05;;;;;;;0.60;0.60;;;5.70;99.90;;;;;;5061721;28;20444;-86
2020/12/13 04:10:31;;;;;;;0.20;0.20;;;5.70;99.90;;;;;;5030924;28;20450;-86
2020/12/13 04:12:57;;;;;;;2.08;1.83;;;5.70;99.90;;;;;;5044342;28;20028;-85
2020/12/13 04:15:22;;;;;;;2.22;1.15;;;5.80;99.90;;;;;;5023077;28;20030;-85
2020/12/13 04:17:49;;;;;;;0.10;0.10;;;5.80;99.90;;;;;;5039271;28;20077;-86
2020/12/13 04:20:15;;;;;;;0.10;0.10;;;5.70;99.90;;;;;;5030470;28;20031;-86
2020/12/13 04:22:41;;;;;;;0.45;0.45;;;5.70;99.90;;;;;;5033191;28;20033;-86
2020/12/13 04:25:08;;;;;;;0.10;0.10;;;5.60;99.90;;;;;;5043345;28;20044;-86
2020/12/13 04:27:34;;;;;;;0.15;0.15;;;5.70;99.90;;;;;;5046081;28;20048;-85
2020/12/13 04:29:59;;;;;;;0.22;0.22;;;5.60;99.90;;;;;;5024204;28;20477;-85
2020/12/13 04:32:26;;;;;;;0.25;0.25;;;5.70;99.90;;;;;;5054796;28;20044;-85
2020/12/13 04:34:52;;;;;;;0.20;0.20;;;5.60;99.90;;;;;;5034793;28;20051;-85
2020/12/13 04:37:18;;;;;;;0.13;0.13;;;5.70;99.90;;;;;;5048554;28;20501;-85
2020/12/13 04:39:44;;;;;;;0.20;0.20;;;5.70;99.90;;;;;;5046952;28;20041;-85
2020/12/13 04:42:10;;;;;;;1.65;1.10;;;5.60;99.90;;;;;;5035262;28;20028;-86
2020/12/13 04:44:37;;;;;;;0.55;0.55;;;5.70;99.90;;;;;;5038056;28;20040;-86
2020/12/13 04:47:07;;;;;;;0.50;0.50;;;5.70;99.90;;;;;;5030060;28;20029;-85
2020/12/13 04:49:35;;;;;;;0.20;0.20;;;5.70;99.90;;;;;;5046892;28;20466;-85
2020/12/13 04:52:04;;;;;;;0.10;0.10;;;5.50;99.90;;;;;;5046619;28;20024;-84
2020/12/13 04:54:30;;;;;;;0.25;0.25;;;5.40;99.90;;;;;;5052087;28;20055;-85
2020/12/13 04:56:58;;;;;;;0.20;0.20;;;5.40;99.90;;;;;;5046332;28;20036;-86
2020/12/13 04:59:25;;;;;;;0.10;0.10;;;5.40;99.90;;;;;;5042488;28;20321;-86
2020/12/13 05:01:53;;;;;;;0.20;0.20;;;5.40;99.90;;;;;;5043970;28;20025;-86
2020/12/13 05:04:19;;;;;;;0.75;0.75;;;5.40;99.90;;;;;;5047284;28;20515;-86
2020/12/13 05:06:46;;;;;;;0.50;0.50;;;5.50;99.90;;;;;;5058728;28;20051;-86
2020/12/13 05:09:14;;;;;;;0.30;0.30;;;5.50;99.90;;;;;;5058716;28;20845;-86
2020/12/13 05:11:45;;;;;;;0.60;0.60;;;5.60;99.90;;;;;;5029890;28;20037;-86
2020/12/13 05:14:11;;;;;;;0.10;0.10;;;5.70;99.90;;;;;;5049417;28;20021;-86
2020/12/13 05:16:37;;;;;;;0.10;0.10;;;5.80;99.90;;;;;;5037809;28;20084;-87
2020/12/13 05:19:06;;;;;;;0.10;0.10;;;5.80;99.90;;;;;;5025759;28;20156;-85
2020/12/13 05:21:32;;;;;;;0.10;0.10;;;5.90;99.90;;;;;;5054173;28;20067;-86
2020/12/13 05:24:00;;;;;;;0.30;0.30;;;5.90;99.90;;;;;;5054898;28;20028;-86
2020/12/13 05:26:26;;;;;;;0.10;0.10;;;5.80;99.90;;;;;;5024455;28;20025;-85
2020/12/13 05:28:53;;;;;;;0.10;0.10;;;5.90;99.90;;;;;;5029298;28;20033;-85
2020/12/13 05:31:21;;;;;;;;;;;5.80;99.90;;;;;;5034924;28;20094;-85
2020/12/13 05:33:51;;;;;;;0.10;0.10;;;5.90;99.90;;;;;;5025841;28;19983;-86
2020/12/13 05:36:18;;;;;;;24.98;1.02;;;5.90;99.90;;;;;;5043649;28;20033;-85
2020/12/13 05:38:44;;;;;;;0.95;0.77;;;5.90;99.90;;;;;;5029529;28;20033;-85
2020/12/13 05:41:13;;;;;;;0.10;0.10;;;5.90;99.90;;;;;;5044827;28;20041;-85
2020/12/13 05:43:54;;;;;;;0.50;0.50;;;5.90;99.90;;;;;;5028959;28;20025;-85
2020/12/13 05:51:44;;;;;;;0.35;0.35;;;5.80;99.90;;;;;;5039251;28;20383;-86
2020/12/13 05:54:26;;;;;;;0.22;0.22;;;5.80;99.90;;;;;;5047586;28;20029;-85
2020/12/13 05:57:00;;;;;;;0.63;0.63;;;5.70;99.90;;;;;;5039965;28;20013;-86
2020/12/13 05:59:28;;;;;;;0.80;0.80;;;5.80;99.90;;;;;;5028781;28;20032;-86
2020/12/13 06:01:56;;;;;;;0.30;0.30;;;5.80;99.90;;;;;;5024437;28;20088;-85
2020/12/13 06:04:27;;;;;;;0.10;0.10;;;5.80;99.90;;;;;;5035055;28;20026;-86
2020/12/13 06:07:02;;;;;;;0.28;0.28;;;5.80;99.90;;;;;;5059006;28;20031;-85
2020/12/13 06:09:36;;;;;;;0.68;0.68;;;5.80;99.90;;;;;;5025324;28;20045;-85
2020/12/13 06:12:04;;;;;;;0.30;0.30;;;5.80;99.90;;;;;;5027069;28;20025;-85
2020/12/13 06:14:30;;;;;;;0.10;0.10;;;5.80;99.90;;;;;;5040349;28;20021;-86
2020/12/13 06:16:57;;;;;;;0.35;0.35;;;5.90;99.90;;;;;;5046587;28;20045;-87
2020/12/13 06:19:25;;;;;;;2.55;0.85;;;5.90;99.90;;;;;;5041068;28;20068;-85
2020/12/13 06:21:54;;;;;;;0.20;0.20;;;5.80;99.90;;;;;;5029511;28;20056;-85
2020/12/13 06:24:21;;;;;;;0.38;0.38;;;5.80;99.90;;;;;;5027211;28;20402;-85
2020/12/13 06:26:47;;;;;;;;;;;5.90;99.90;;;;;;5044322;28;20067;-85
2020/12/13 06:29:14;;;;;;;0.10;0.10;;;5.90;99.90;;;;;;5028531;28;19912;-84
2020/12/13 06:31:40;;;;;;;0.15;0.15;;;5.90;99.90;;;;;;5036316;28;20509;-85
2020/12/13 06:34:08;;;;;;;0.65;0.43;;;5.90;99.90;;;;;;5048513;28;20113;-86
2020/12/13 06:36:36;;;;;;;0.20;0.20;;;5.90;99.90;;;;;;5025812;28;20076;-86
2020/12/13 06:39:12;;;;;;;0.60;0.60;;;5.90;99.90;;;;;;5032867;28;20480;-86
2020/12/13 06:41:44;;;;;;;0.55;0.55;;;5.80;99.90;;;;;;5050217;28;20401;-86
2020/12/13 06:44:12;;;;;;;0.20;0.20;;;5.80;99.90;;;;;;5032718;28;20035;-86
2020/12/13 06:46:41;;;;;;;2.55;1.58;;;5.70;99.90;;;;;;5030864;28;20022;-86
2020/12/13 06:49:14;;;;;;;0.52;0.52;;;5.80;99.90;;;;;;5044663;28;20140;-86
2020/12/13 06:51:44;;;;;;;0.32;0.32;;;5.80;99.90;;;;;;5029169;28;20071;-86
2020/12/13 06:54:12;;;;;;;0.17;0.17;;;5.80;99.90;;;;;;5032847;28;20669;-86
2020/12/13 06:56:40;;;;;;;0.10;0.10;;;5.80;99.90;;;;;;5017005;28;20025;-86
2020/12/13 06:59:07;;;;;;;0.10;0.10;;;5.80;99.90;;;;;;5026449;28;20076;-85
2020/12/13 07:01:37;;;;;;;0.30;0.30;;;5.80;99.90;;;;;;5050619;28;20079;-87
2020/12/13 07:04:23;;;;;;;0.20;0.20;;;5.80;99.90;;;;;;5050062;28;20017;-86
2020/12/13 07:06:55;;;;;;;0.10;0.10;;;5.80;99.90;;;;;;5049108;28;20490;-86
2020/12/13 07:09:21;;;;;;;0.10;0.10;;;5.80;99.90;;;;;;5047808;28;20025;-89
2020/12/13 07:11:49;;;;;;;0.10;0.10;;;5.80;99.90;;;;;;5049708;28;20032;-89
2020/12/13 07:14:16;;;;;;;0.10;0.10;;;5.80;99.90;;;;;;5052668;28;20079;-89
2020/12/13 07:16:46;;;;;;;0.20;0.20;;;5.80;99.90;;;;;;5028685;28;20087;-91
2020/12/13 07:19:14;;;;;;;0.10;0.10;;;5.80;99.90;;;;;;5050354;28;20091;-90
2020/12/13 07:21:42;;;;;;;0.50;0.38;;;5.90;99.90;;;;;;5039930;28;20402;-90
2020/12/13 07:24:08;;;;;;;0.22;0.22;;;5.80;99.90;;;;;;5037213;28;20033;-89
2020/12/13 07:26:35;;;;;;;0.52;0.52;;;5.70;99.90;;;;;;5018537;28;20044;-89
2020/12/13 07:29:03;;;;;;;0.57;0.57;;;5.70;99.90;;;;;;5050327;28;20037;-91
2020/12/13 07:31:37;;;;;;;1.15;0.90;;;5.80;99.90;;;;;;5043025;28;20070;-92
2020/12/13 07:34:06;;;;;;;0.40;0.40;;;5.90;99.90;;;;;;5024842;28;20028;-93
2020/12/13 07:36:33;;;;;;;2.65;1.35;;;5.90;99.90;;;;;;5035285;28;20132;-91
2020/12/13 07:39:05;;;;;;;1.05;0.40;;;5.90;99.90;;;;;;5030201;28;20027;-93
2020/12/13 07:41:31;;;;;;;0.20;0.20;;;5.90;99.90;;;;;;5033803;28;20056;-92
2020/12/13 07:44:09;;;;;;;0.10;0.10;;;5.90;99.90;;;;;;5027956;28;20033;-91
2020/12/13 07:46:36;;;;;;;0.98;0.88;;;5.90;99.90;;;;;;5023781;28;20060;-91
2020/12/13 07:49:14;;;;;;;1.85;0.50;;;5.90;99.90;;;;;;5044036;28;20086;-90
2020/12/13 07:51:42;;;;;;;0.10;0.10;;;5.90;99.90;;;;;;5048660;28;20029;-88
2020/12/13 07:54:10;;;;;;;0.25;0.25;;;5.90;99.90;;;;;;5035761;28;20868;-88
2020/12/13 07:56:36;;;;;;;0.20;0.20;;;6.00;99.90;;;;;;5021287;28;20029;-92
2020/12/13 07:59:17;;;;;;;0.50;0.50;;;6.00;99.90;;;;;;5026119;28;20025;-89
2020/12/13 08:01:45;;;;;;;0.10;0.10;;;5.90;99.90;;;;;;5034830;28;20036;-86
2020/12/13 08:04:13;;;;;;;0.10;0.10;;;5.90;99.90;;;;;;5048798;28;20064;-89
2020/12/13 08:06:40;;;;;;;0.10;0.10;;;6.00;99.90;;;;;;5033200;28;20683;-88
2020/12/13 08:09:14;;;;;;;0.35;0.35;;;6.00;99.90;;;;;;5030163;28;20554;-88
2020/12/13 08:11:41;;;;;;;0.57;0.57;;;6.00;99.90;;;;;;5028619;28;20040;-88
2020/12/13 08:14:08;;;;;;;4.18;1.95;;;6.10;99.90;;;;;;5036174;28;20477;-87
2020/12/13 08:16:35;;;;;;;0.10;0.10;;;6.20;99.90;;;;;;5041501;28;20037;-87
2020/12/13 08:19:15;;;;;;;0.10;0.10;;;6.30;99.90;;;;;;5021185;28;20429;-86
2020/12/13 08:22:01;;;;;;;0.20;0.20;;;6.30;99.90;;;;;;5038512;28;20064;-87
2020/12/13 08:24:29;;;;;;;0.15;0.15;;;6.20;99.90;;;;;;5040216;28;20091;-86
2020/12/13 08:26:58;;;;;;;0.32;0.32;;;6.40;99.90;;;;;;5039878;28;20608;-87
2020/12/13 08:29:25;;;;;;;1.15;0.93;;;6.30;99.90;;;;;;5035988;28;20028;-87
2020/12/13 08:31:52;;;;;;;0.63;0.63;;;6.40;99.90;;;;;;5017281;28;20029;-86
2020/12/13 08:34:26;;;;;;;0.30;0.30;;;6.20;99.90;;;;;;5036806;28;20029;-85
2020/12/13 08:36:54;;;;;;;0.20;0.20;;;6.30;99.90;;;;;;5024454;28;20025;-87
2020/12/13 08:39:31;;;;;;;0.38;0.38;;;6.40;99.90;;;;;;5027374;28;20024;-87
2020/12/13 08:42:00;;;;;;;;;;;6.60;99.90;;;;;;5018042;28;20087;-87
2020/12/13 08:44:41;;;;;;;0.30;0.30;;;6.60;99.90;;;;;;5030659;28;19905;-88
2020/12/13 08:47:11;;;;;;;0.30;0.30;;;6.80;99.90;;;;;;5015906;28;20084;-87
2020/12/13 08:49:42;;;;;;;0.20;0.20;;;7.00;99.90;;;;;;5032540;28;20037;-88
2020/12/13 08:52:33;;;;;;;1.08;0.80;;;7.00;99.90;;;;;;5038929;28;20017;-88
2020/12/13 08:55:04;;;;;;;0.65;0.65;;;7.20;99.90;;;;;;5033887;28;20037;-88
2020/12/13 08:57:36;;;;;;;0.25;0.25;;;7.40;99.90;;;;;;5033303;28;20032;-86
2020/12/13 09:00:13;;;;;;;0.43;0.43;;;7.50;99.90;;;;;;5045328;28;20080;-86
2020/12/13 09:02:40;;;;;;;;;;;7.50;99.90;;;;;;5015263;28;20503;-88
2020/12/13 09:05:07;;;;;;;0.52;0.52;;;7.30;99.90;;;;;;5044639;28;19951;-89
2020/12/13 09:07:34;;;;;;;0.40;0.40;;;7.30;99.90;;;;;;5030579;28;20029;-89
2020/12/13 09:10:09;;;;;;;0.10;0.10;;;7.20;99.90;;;;;;5027762;28;20052;-90
2020/12/13 09:12:36;;;;;;;0.45;0.45;;;7.40;99.90;;;;;;5035461;28;20033;-88
2020/12/13 09:15:15;;;;;;;0.10;0.10;;;7.30;99.90;;;;;;5022838;28;20025;-88
2020/12/13 09:17:41;;;;;;;0.22;0.22;;;7.40;99.90;;;;;;5040107;28;20056;-90
2020/12/13 09:20:08;;;;;;;0.40;0.40;;;7.30;99.90;;;;;;5018516;28;20036;-89
2020/12/13 09:22:34;;;;;;;4.07;0.80;;;7.40;99.90;;;;;;5019810;28;20029;-87
2020/12/13 09:25:01;;;;;;;0.10;0.10;;;7.50;99.90;;;;;;5045777;28;20568;-87
2020/12/13 09:27:27;;;;;;;0.40;0.40;;;7.50;99.90;;;;;;5033430;28;20055;-86
2020/12/13 09:29:53;;;;;;;0.20;0.20;;;7.90;99.90;;;;;;5021499;28;20040;-87
2020/12/13 09:32:21;;;;;;;0.68;0.68;;;7.90;99.90;;;;;;5040077;28;20021;-87
2020/12/13 09:34:47;;;;;;;0.10;0.10;;;7.90;99.90;;;;;;5035714;28;20405;-87
2020/12/13 09:37:15;;;;;;;0.20;0.20;;;7.80;99.90;;;;;;5039847;28;20033;-87
2020/12/13 09:39:42;;;;;;;0.10;0.10;;;8.20;99.90;;;;;;5029609;28;20082;-87
2020/12/13 09:42:09;;;;;;;1.48;1.38;;;8.40;99.90;;;;;;5054720;28;20498;-87
2020/12/13 09:44:34;;;;;;;;;;;8.60;99.90;;;;;;5058265;28;20033;-87
2020/12/13 09:47:01;;;;;;;0.20;0.20;;;8.70;99.90;;;;;;5023673;28;20031;-87
2020/12/13 09:49:28;;;;;;;0.10;0.10;;;8.80;99.90;;;;;;5033425;28;20135;-87
2020/12/13 09:51:56;;;;;;;0.13;0.13;;;8.90;99.90;;;;;;5039472;28;20028;-87
2020/12/13 09:54:23;;;;;;;0.10;0.10;;;8.50;99.90;;;;;;5032186;28;20056;-86
2020/12/13 09:56:48;;;;;;;0.17;0.17;;;8.50;99.90;;;;;;5041598;28;20849;-87
2020/12/13 09:59:14;;;;;;;0.75;0.63;;;8.40;99.90;;;;;;5046254;28;20096;-88
2020/12/13 10:01:40;;;;;;;0.30;0.30;;;8.50;99.90;;;;;;5029293;28;20071;-88
2020/12/13 10:04:05;;;;;;;0.30;0.30;;;8.20;99.90;;;;;;5058922;28;20025;-87
2020/12/13 10:06:45;;;;;;;0.30;0.30;;;8.50;99.90;;;;;;5048133;28;20040;-87
2020/12/13 10:09:12;;;;;;;0.10;0.10;;;8.50;99.90;;;;;;5022940;28;20151;-90
2020/12/13 10:11:40;;;;;;;0.10;0.10;;;8.70;99.90;;;;;;5020008;28;20112;-90
2020/12/13 10:14:09;;;;;;;0.38;0.38;;;8.50;99.90;;;;;;5043449;28;20091;-92
2020/12/13 10:16:35;;;;;;;0.45;0.45;;;8.30;99.90;;;;;;5036123;28;20033;-90
2020/12/13 10:19:01;;;;;;;0.10;0.10;;;8.30;99.90;;;;;;5034003;28;20076;-91
2020/12/13 10:21:29;;;;;;;0.20;0.20;;;8.20;99.90;;;;;;5033454;28;20048;-91
2020/12/13 10:23:55;;;;;;;0.10;0.10;;;8.30;99.90;;;;;;5026178;28;20033;-91
2020/12/13 10:26:29;;;;;;;0.50;0.50;;;8.30;99.90;;;;;;5024266;28;20033;-92
2020/12/13 10:28:56;;;;;;;18.30;1.65;;;8.40;99.90;;;;;;5026739;28;20045;-91
2020/12/13 10:31:42;;;;;;;0.10;0.10;;;8.60;99.90;;;;;;5033244;28;20459;-92
2020/12/13 10:34:11;;;;;;;;;;;8.80;99.90;;;;;;5044526;28;20021;-92
2020/12/13 10:36:39;;;;;;;0.25;0.25;;;8.90;99.90;;;;;;5023659;28;20003;-90
2020/12/13 10:39:07;;;;;;;0.40;0.40;;;9.70;99.90;;;;;;5032684;28;20029;-90
2020/12/13 10:41:34;;;;;;;1.45;0.90;;;9.90;99.90;;;;;;5030292;28;20028;-90
2020/12/13 10:44:00;;;;;;;7.50;2.37;;;10.10;99.90;;;;;;5047396;28;20107;-90
2020/12/13 10:46:26;;;;;;;0.20;0.20;;;10.00;99.90;;;;;;5033121;28;20024;-90
2020/12/13 10:48:52;;;;;;;2.03;1.40;;;10.60;99.90;;;;;;5023753;28;20799;-91
2020/12/13 10:51:19;;;;;;;0.10;0.10;;;9.80;99.90;;;;;;5041659;28;20374;-89
2020/12/13 10:53:46;;;;;;;0.10;0.10;;;12.50;99.90;;;;;;5026009;28;20029;-89
2020/12/13 10:56:13;;;;;;;0.80;0.77;;;13.40;99.90;;;;;;5034245;28;20025;-89
2020/12/13 10:58:42;;;;;;;1.42;0.50;;;12.60;99.90;;;;;;5030714;28;20021;-89
2020/12/13 11:01:09;;;;;;;0.85;0.65;;;13.50;99.90;;;;;;5008630;28;20674;-89
2020/12/13 11:03:35;;;;;;;0.10;0.10;;;13.00;99.90;;;;;;5028486;28;20103;-89
2020/12/13 11:06:01;;;;;;;0.10;0.10;;;11.90;99.90;;;;;;5044869;28;20034;-89
2020/12/13 11:08:28;;;;;;;0.40;0.40;;;9.90;99.90;;;;;;5043393;28;20029;-88
2020/12/13 11:10:54;;;;;;;;;;;9.70;99.90;;;;;;5001329;28;20152;-90
2020/12/13 11:13:20;;;;;;;0.10;0.10;;;9.70;99.90;;;;;;5026087;28;19996;-89
2020/12/13 11:15:48;;;;;;;0.20;0.20;;;10.50;99.90;;;;;;5030104;28;20110;-87
2020/12/13 11:18:15;;;;;;;0.22;0.22;;;10.60;99.90;;;;;;5036713;28;20124;-90
2020/12/13 11:20:42;;;;;;;0.10;0.10;;;10.60;99.90;;;;;;5016470;28;20392;-88
2020/12/13 11:23:09;;;;;;;0.43;0.43;;;10.60;99.90;;;;;;5016111;28;20029;-88
2020/12/13 11:25:35;;;;;;;0.15;0.15;;;10.30;99.90;;;;;;5024378;28;20037;-88
2020/12/13 11:28:02;;;;;;;0.10;0.10;;;10.50;99.90;;;;;;5008723;28;20034;-89
2020/12/13 11:30:28;;;;;;;0.28;0.28;;;10.30;99.90;;;;;;5005427;28;20311;-92
2020/12/13 11:32:55;;;;;;;2.45;0.65;;;10.00;99.90;;;;;;5011362;28;20021;-89
2020/12/13 11:35:21;;;;;;;0.10;0.10;;;10.00;99.90;;;;;;5018347;28;20538;-90
2020/12/13 11:37:47;;;;;;;0.10;0.10;;;10.00;99.90;;;;;;5012737;28;20507;-90
2020/12/13 11:40:14;;;;;;;0.10;0.10;;;10.10;99.90;;;;;;5010867;28;20037;-90
2020/12/13 11:42:40;;;;;;;0.50;0.50;;;9.90;99.90;;;;;;5029161;28;20033;-92
2020/12/13 11:45:12;;;;;;;0.10;0.10;;;10.00;99.90;;;;;;5012919;28;20026;-89
2020/12/13 11:47:43;;;;;;;0.88;0.47;;;9.90;99.90;;;;;;5012290;28;20057;-89
2020/12/13 11:50:13;;;;;;;0.10;0.10;;;9.70;99.90;;;;;;5022921;28;20406;-89
2020/12/13 11:52:40;;;;;;;0.45;0.45;;;9.70;99.90;;;;;;5030723;28;20079;-91
2020/12/13 11:55:07;;;;;;;0.77;0.77;;;10.00;99.90;;;;;;5013828;28;20017;-91
2020/12/13 11:57:34;;;;;;;0.10;0.10;;;9.90;99.90;;;;;;5012818;28;20042;-87
2020/12/13 11:59:59;;;;;;;0.10;0.10;;;10.30;99.90;;;;;;5031701;28;20028;-89
2020/12/13 12:02:26;;;;;;;0.10;0.10;;;10.10;99.90;;;;;;5014555;28;20033;-91
2020/12/13 12:04:51;;;;;;;0.10;0.10;;;10.10;99.90;;;;;;5033532;28;20030;-92
2020/12/13 12:07:17;;;;;;;0.30;0.30;;;10.20;99.90;;;;;;5015036;28;20032;-90
2020/12/13 12:09:43;;;;;;;0.10;0.10;;;10.50;99.90;;;;;;5026969;28;20120;-89
2020/12/13 12:12:09;;;;;;;0.10;0.10;;;10.60;99.90;;;;;;5020314;28;20026;-88
2020/12/13 12:14:35;;;;;;;0.10;0.10;;;10.30;99.90;;;;;;5032025;28;20033;-86
2020/12/13 12:17:04;;;;;;;0.95;0.52;;;10.20;99.90;;;;;;5021637;28;20439;-88
2020/12/13 12:19:31;;;;;;;0.10;0.10;;;10.00;99.90;;;;;;5031217;28;20036;-89
2020/12/13 12:21:57;;;;;;;;;;;10.00;99.90;;;;;;5037393;28;20017;-89
2020/12/13 12:24:24;;;;;;;0.40;0.40;;;10.30;99.90;;;;;;5012148;28;20016;-88
2020/12/13 12:26:51;;;;;;;0.10;0.10;;;10.30;99.90;;;;;;5035825;28;20495;-88
2020/12/13 12:29:21;;;;;;;0.10;0.10;;;10.30;99.90;;;;;;5027720;28;20025;-87
2020/12/13 12:31:48;;;;;;;1.02;0.95;;;10.20;99.90;;;;;;5011930;28;20018;-87
2020/12/13 12:34:14;;;;;;;0.10;0.10;;;10.50;99.90;;;;;;5013402;28;20063;-91
2020/12/13 12:36:40;;;;;;;0.10;0.10;;;10.50;99.90;;;;;;5014604;28;20045;-92
2020/12/13 12:39:07;;;;;;;0.10;0.10;;;10.80;99.90;;;;;;5027672;28;20037;-92
2020/12/13 12:41:33;;;;;;;0.10;0.10;;;10.90;99.90;;;;;;5021429;28;20113;-92
2020/12/13 12:43:59;;;;;;;2.03;0.95;;;11.30;99.90;;;;;;5021426;28;20067;-93
2020/12/13 12:46:25;;;;;;;0.10;0.10;;;11.70;99.90;;;;;;5020757;28;20026;-92
2020/12/13 12:48:51;;;;;;;0.10;0.10;;;10.60;99.90;;;;;;5028529;28;20554;-95
2020/12/13 12:51:19;;;;;;;3.67;1.80;;;10.50;99.90;;;;;;5029890;28;20163;-93
2020/12/13 12:53:46;;;;;;;0.10;0.10;;;10.50;99.90;;;;;;5009331;28;20029;-92
2020/12/13 12:56:17;;;;;;;;;;;10.70;99.90;;;;;;5026844;28;20078;-93
2020/12/13 13:01:39;;;;;;;0.17;0.17;;;10.70;99.90;;;;;;5034520;28;20037;-91
2020/12/13 13:04:09;;;;;;;0.20;0.20;;;10.70;99.90;;;;;;5011840;28;20026;-94
2020/12/13 13:11:38;;;;;;;0.55;0.55;;;10.40;99.90;;;;;;5027901;28;20025;-95
2020/12/13 13:14:05;;;;;;;0.10;0.10;;;10.30;99.90;;;;;;5014930;28;20403;-92
2020/12/13 13:16:32;;;;;;;0.52;0.52;;;10.50;99.90;;;;;;5018785;28;20088;-92